Time;durP1;ratioP1;P1;durP2;ratioP2;P2;SDS_P1;SDS_P2;PMS_P1;PMS_P2;Temp;Humidity;BMP_temperature;BMP_pressure;BME280_temperature;BME280_humidity;BME280_pressure;Samples;Min_cycle;Max_cycle;Signal;HPM_P1;HPM_P2
2022/10/19 00:01:39;;;;;;;0.40;0.40;;;11.70;99.90;;;;;;4995358;28;20537;-66
2022/10/19 00:04:27;;;;;;;0.40;0.40;;;12.00;99.90;;;;;;4994957;28;20423;-65
2022/10/19 00:07:17;;;;;;;0.40;0.40;;;12.00;99.90;;;;;;4995230;28;20537;-65
2022/10/19 00:10:05;;;;;;;0.40;0.40;;;12.00;99.90;;;;;;4994778;28;20581;-65
2022/10/19 00:12:53;;;;;;;0.40;0.40;;;12.00;99.90;;;;;;4994942;28;21050;-65
2022/10/19 00:15:41;;;;;;;0.40;0.40;;;12.00;99.90;;;;;;4994717;28;20430;-65
2022/10/19 00:18:29;;;;;;;0.40;0.40;;;12.10;99.90;;;;;;4994673;28;20541;-65
2022/10/19 00:21:19;;;;;;;0.40;0.40;;;12.10;99.90;;;;;;4994479;28;20959;-66
2022/10/19 00:24:09;;;;;;;0.40;0.40;;;11.90;99.90;;;;;;4994451;28;20501;-65
2022/10/19 00:26:57;;;;;;;0.40;0.40;;;12.00;99.90;;;;;;4994756;28;20585;-66
2022/10/19 00:29:45;;;;;;;0.40;0.40;;;12.00;99.90;;;;;;4994059;28;20433;-66
2022/10/19 00:32:33;;;;;;;0.40;0.40;;;12.00;99.90;;;;;;4994856;28;20978;-67
2022/10/19 00:35:22;;;;;;;0.40;0.40;;;11.90;99.90;;;;;;4994566;28;20427;-66
2022/10/19 00:38:10;;;;;;;0.40;0.40;;;12.00;99.90;;;;;;4994423;28;20530;-65
2022/10/19 00:40:59;;;;;;;0.40;0.40;;;11.70;99.90;;;;;;4994034;28;20849;-66
2022/10/19 00:43:52;;;;;;;0.40;0.40;;;12.00;99.90;;;;;;4995496;28;20415;-65
2022/10/19 00:46:42;;;;;;;0.40;0.40;;;12.10;99.90;;;;;;4994015;28;20447;-66
2022/10/19 00:49:33;;;;;;;0.40;0.40;;;12.20;99.90;;;;;;4993973;28;20474;-65
2022/10/19 00:52:24;;;;;;;0.40;0.40;;;12.20;99.90;;;;;;4994540;28;20541;-65
2022/10/19 00:55:13;;;;;;;0.40;0.40;;;12.10;99.90;;;;;;4993668;28;20501;-66
2022/10/19 00:58:03;;;;;;;0.40;0.40;;;12.20;99.90;;;;;;4994185;28;20811;-65
2022/10/19 01:00:51;;;;;;;0.40;0.40;;;12.20;99.90;;;;;;4993640;28;20806;-65
2022/10/19 01:03:39;;;;;;;0.40;0.40;;;12.10;99.90;;;;;;4993848;28;20419;-65
2022/10/19 01:06:28;;;;;;;0.70;0.70;;;12.10;99.90;;;;;;4993930;28;20944;-65
2022/10/19 01:09:16;;;;;;;0.40;0.40;;;12.20;99.90;;;;;;4996153;28;20528;-66
2022/10/19 01:12:10;;;;;;;0.40;0.40;;;12.10;99.90;;;;;;5012391;28;20414;-66
2022/10/19 01:15:11;;;;;;;0.40;0.40;;;12.10;99.90;;;;;;5013775;28;20454;-65
2022/10/19 01:18:06;;;;;;;0.40;0.40;;;12.00;99.90;;;;;;5014178;28;20496;-65
2022/10/19 01:21:17;;;;;;;0.40;0.40;;;12.00;99.90;;;;;;5013718;28;20433;-65
2022/10/19 01:24:26;;;;;;;0.40;0.40;;;12.00;99.90;;;;;;5013816;28;20560;-66
2022/10/19 01:27:40;;;;;;;0.40;0.40;;;12.00;99.90;;;;;;5014078;28;20595;-65
2022/10/19 01:30:42;;;;;;;0.40;0.40;;;12.00;99.90;;;;;;5014063;28;20529;-66
2022/10/19 01:33:43;;;;;;;0.40;0.40;;;12.10;99.90;;;;;;5013959;28;20472;-65
2022/10/19 01:36:40;;;;;;;0.40;0.40;;;12.00;99.90;;;;;;5013284;28;20421;-66
2022/10/19 01:39:35;;;;;;;0.40;0.40;;;11.90;99.90;;;;;;5013108;28;20512;-65
2022/10/19 01:42:28;;;;;;;0.40;0.40;;;11.90;99.90;;;;;;5013343;28;20564;-66
2022/10/19 01:45:21;;;;;;;0.40;0.40;;;11.90;99.90;;;;;;5013389;28;20513;-65
2022/10/19 01:48:15;;;;;;;0.40;0.40;;;11.90;99.90;;;;;;5013190;28;20537;-66
2022/10/19 01:51:07;;;;;;;0.40;0.40;;;12.00;99.90;;;;;;5013142;28;20517;-65
2022/10/19 01:53:59;;;;;;;0.40;0.40;;;12.00;99.90;;;;;;5013783;28;20537;-66
2022/10/19 01:56:49;;;;;;;0.40;0.40;;;12.00;99.90;;;;;;5013077;28;20540;-65
2022/10/19 01:59:39;;;;;;;0.40;0.40;;;11.90;99.90;;;;;;5012752;28;20472;-65
2022/10/19 02:02:28;;;;;;;0.40;0.40;;;11.90;99.90;;;;;;5013118;28;20437;-65
2022/10/19 02:05:21;;;;;;;0.40;0.40;;;11.90;99.90;;;;;;5013529;28;20513;-66
2022/10/19 02:08:14;;;;;;;0.40;0.40;;;11.90;99.90;;;;;;5012789;28;20895;-65
2022/10/19 02:11:03;;;;;;;0.40;0.40;;;11.90;99.90;;;;;;5012551;28;21010;-65
2022/10/19 02:13:56;;;;;;;0.40;0.40;;;11.60;99.90;;;;;;5012685;28;20468;-65
2022/10/19 02:16:48;;;;;;;0.40;0.40;;;11.90;99.90;;;;;;5012847;28;20952;-65
2022/10/19 02:19:36;;;;;;;0.40;0.40;;;11.90;99.90;;;;;;5013108;28;20513;-66
2022/10/19 02:22:26;;;;;;;0.40;0.40;;;11.90;99.90;;;;;;5013064;28;20512;-66
2022/10/19 02:25:15;;;;;;;0.40;0.40;;;11.80;99.90;;;;;;5013599;28;20422;-65
2022/10/19 02:28:04;;;;;;;0.40;0.40;;;11.80;99.90;;;;;;5012548;28;20569;-66
2022/10/19 02:30:52;;;;;;;0.40;0.40;;;11.80;99.90;;;;;;5013051;28;20800;-65
2022/10/19 02:33:41;;;;;;;0.40;0.40;;;11.80;99.90;;;;;;5012881;28;20540;-66
2022/10/19 02:36:29;;;;;;;0.40;0.40;;;11.80;99.90;;;;;;5013303;28;20524;-65
2022/10/19 02:39:18;;;;;;;0.40;0.40;;;11.60;99.90;;;;;;5012830;28;20922;-66
2022/10/19 02:42:11;;;;;;;0.40;0.40;;;11.70;99.90;;;;;;5012908;28;20454;-65
2022/10/19 02:45:06;;;;;;;0.50;0.50;;;11.80;99.90;;;;;;5012916;28;20509;-65
2022/10/19 02:47:58;;;;;;;0.40;0.40;;;11.80;99.90;;;;;;5011581;28;20476;-65
2022/10/19 02:50:47;;;;;;;0.57;0.57;;;11.80;99.90;;;;;;5011813;28;20584;-65
2022/10/19 02:53:35;;;;;;;0.40;0.40;;;11.80;99.90;;;;;;5012310;28;20422;-65
2022/10/19 02:56:25;;;;;;;0.30;0.30;;;11.80;99.90;;;;;;5012524;28;20841;-66
2022/10/19 02:59:13;;;;;;;0.40;0.40;;;11.80;99.90;;;;;;5022664;28;20497;-65
2022/10/19 03:02:01;;;;;;;0.80;0.80;;;12.10;99.90;;;;;;5025225;28;20430;-66
2022/10/19 03:04:49;;;;;;;0.40;0.40;;;11.60;99.90;;;;;;5023964;28;20446;-66
2022/10/19 03:07:37;;;;;;;0.70;0.70;;;11.90;99.90;;;;;;5023142;28;20469;-66
2022/10/19 03:10:25;;;;;;;0.40;0.40;;;11.70;99.90;;;;;;5020497;28;20508;-66
2022/10/19 03:13:14;;;;;;;1.03;1.00;;;11.60;99.90;;;;;;5022576;28;20512;-66
2022/10/19 03:16:07;;;;;;;0.40;0.40;;;11.70;99.90;;;;;;5022620;28;20468;-65
2022/10/19 03:18:55;;;;;;;0.40;0.40;;;11.70;99.90;;;;;;5070671;23;20574;-70
2022/10/19 03:21:43;;;;;;;0.50;0.50;;;11.80;99.90;;;;;;5052794;28;20502;-69
2022/10/19 03:24:31;;;;;;;0.40;0.40;;;11.60;99.90;;;;;;5051269;28;20503;-69
2022/10/19 03:27:19;;;;;;;0.40;0.40;;;11.70;99.90;;;;;;5055046;28;20975;-67
2022/10/19 03:30:10;;;;;;;0.40;0.40;;;11.60;99.90;;;;;;5071260;28;21016;-70
2022/10/19 03:32:58;;;;;;;0.40;0.40;;;11.70;99.90;;;;;;5073631;28;20457;-70
2022/10/19 03:35:46;;;;;;;0.40;0.40;;;11.50;99.90;;;;;;5076058;28;20512;-68
2022/10/19 03:38:34;;;;;;;0.40;0.40;;;11.40;99.90;;;;;;5075122;28;20451;-68
2022/10/19 03:41:24;;;;;;;0.40;0.40;;;11.70;99.90;;;;;;5075385;28;20535;-70
2022/10/19 03:44:12;;;;;;;0.40;0.40;;;11.60;99.90;;;;;;5074808;28;20506;-70
2022/10/19 03:47:02;;;;;;;0.40;0.40;;;11.70;99.90;;;;;;5076284;28;21040;-70
2022/10/19 03:49:50;;;;;;;0.40;0.40;;;11.70;99.90;;;;;;5074534;28;21007;-71
2022/10/19 03:52:38;;;;;;;0.40;0.40;;;11.60;99.90;;;;;;5075145;28;20431;-70
2022/10/19 03:55:26;;;;;;;0.40;0.40;;;11.70;99.90;;;;;;5075658;28;20463;-68
2022/10/19 03:58:14;;;;;;;0.50;0.50;;;11.70;99.90;;;;;;5075249;28;20439;-68
2022/10/19 04:01:06;;;;;;;0.40;0.40;;;11.70;99.90;;;;;;5075342;28;20433;-70
2022/10/19 04:03:57;;;;;;;0.40;0.40;;;11.70;99.90;;;;;;5076829;28;20426;-70
2022/10/19 04:06:47;;;;;;;0.40;0.40;;;;;;;;;;5074889;28;20999;-67
2022/10/19 04:09:35;;;;;;;0.40;0.40;;;11.60;99.90;;;;;;5074592;28;20520;-69
2022/10/19 04:12:23;;;;;;;0.40;0.40;;;11.60;99.90;;;;;;5074791;28;20433;-68
2022/10/19 04:15:11;;;;;;;0.40;0.40;;;11.60;99.90;;;;;;5075312;28;20907;-69
2022/10/19 04:17:59;;;;;;;0.40;0.40;;;11.80;99.90;;;;;;5074170;28;20835;-68
2022/10/19 04:20:48;;;;;;;0.40;0.40;;;11.60;99.90;;;;;;5075110;28;20943;-71
2022/10/19 04:23:37;;;;;;;0.60;0.60;;;11.60;99.90;;;;;;5074669;28;20447;-69
2022/10/19 04:26:26;;;;;;;0.40;0.40;;;11.60;99.90;;;;;;5076992;28;20998;-70
2022/10/19 04:29:16;;;;;;;0.47;0.47;;;11.60;99.90;;;;;;5074242;28;20510;-68
2022/10/19 04:32:04;;;;;;;0.40;0.40;;;11.60;99.90;;;;;;5077025;28;20488;-67
2022/10/19 04:34:52;;;;;;;0.40;0.40;;;11.60;99.90;;;;;;5069346;28;20557;-64
2022/10/19 04:37:41;;;;;;;0.40;0.40;;;11.50;99.90;;;;;;5056287;28;20551;-67
2022/10/19 04:40:29;;;;;;;0.40;0.40;;;11.60;99.90;;;;;;5054513;28;20475;-68
2022/10/19 04:43:17;;;;;;;0.50;0.50;;;11.60;99.90;;;;;;5055336;28;20519;-69
2022/10/19 04:46:07;;;;;;;0.40;0.40;;;11.40;99.90;;;;;;5055452;28;20781;-69
2022/10/19 04:48:56;;;;;;;0.40;0.40;;;11.60;99.90;;;;;;5054825;28;20586;-70
2022/10/19 04:51:44;;;;;;;0.40;0.40;;;11.60;99.90;;;;;;5055101;28;20963;-68
2022/10/19 04:54:34;;;;;;;1.73;1.37;;;11.50;99.90;;;;;;5054760;28;20431;-69
2022/10/19 04:57:22;;;;;;;0.40;0.40;;;11.50;99.90;;;;;;5055465;28;20504;-70
2022/10/19 05:00:11;;;;;;;0.40;0.40;;;11.50;99.90;;;;;;5054341;28;20664;-70
2022/10/19 05:02:59;;;;;;;0.40;0.40;;;11.50;99.90;;;;;;5055243;28;20511;-67
2022/10/19 05:05:47;;;;;;;0.40;0.40;;;11.50;99.90;;;;;;5054562;28;20444;-69
2022/10/19 05:08:36;;;;;;;0.40;0.40;;;11.30;99.90;;;;;;5054056;28;20531;-66
2022/10/19 05:11:26;;;;;;;0.40;0.40;;;11.40;99.90;;;;;;5054681;28;20511;-69
2022/10/19 05:14:14;;;;;;;0.40;0.40;;;11.40;99.90;;;;;;5054346;28;20561;-69
2022/10/19 05:17:02;;;;;;;0.40;0.40;;;11.50;99.90;;;;;;5054582;28;20466;-69
2022/10/19 05:19:50;;;;;;;0.73;0.70;;;11.50;99.90;;;;;;5054105;28;20562;-70
2022/10/19 05:22:38;;;;;;;0.40;0.40;;;11.30;99.90;;;;;;5054226;28;20420;-69
2022/10/19 05:25:26;;;;;;;0.40;0.40;;;11.50;99.90;;;;;;5052613;28;20416;-71
2022/10/19 05:28:16;;;;;;;0.40;0.40;;;11.50;99.90;;;;;;5054241;28;20586;-71
2022/10/19 05:31:08;;;;;;;0.50;0.50;;;11.40;99.90;;;;;;5053840;28;20508;-68
2022/10/19 05:33:57;;;;;;;0.40;0.40;;;11.40;99.90;;;;;;5053258;28;20426;-71
2022/10/19 05:36:45;;;;;;;0.50;0.50;;;11.40;99.90;;;;;;5053370;28;20471;-70
2022/10/19 05:39:33;;;;;;;0.40;0.40;;;11.40;99.90;;;;;;5051811;28;20490;-70
2022/10/19 05:42:21;;;;;;;0.50;0.50;;;11.50;99.90;;;;;;5053949;28;21033;-70
2022/10/19 05:45:11;;;;;;;0.50;0.50;;;11.40;99.90;;;;;;5054241;28;20424;-68
2022/10/19 05:47:59;;;;;;;0.40;0.40;;;11.40;99.90;;;;;;5053020;28;20582;-68
2022/10/19 05:50:53;;;;;;;0.40;0.40;;;11.40;99.90;;;;;;5053681;28;20558;-70
2022/10/19 05:53:42;;;;;;;0.40;0.40;;;11.50;99.90;;;;;;5053405;28;20922;-68
2022/10/19 05:56:32;;;;;;;0.40;0.40;;;11.50;99.90;;;;;;5052929;28;20472;-69
2022/10/19 05:59:21;;;;;;;0.50;0.50;;;11.50;99.90;;;;;;5052605;28;20486;-70
2022/10/19 06:02:13;;;;;;;0.50;0.50;;;11.50;99.90;;;;;;5060195;28;20449;-71
2022/10/19 06:05:01;;;;;;;0.40;0.40;;;11.50;99.90;;;;;;5066145;28;20496;-68
2022/10/19 06:07:49;;;;;;;0.40;0.40;;;11.50;99.90;;;;;;5064638;28;20439;-68
2022/10/19 06:10:37;;;;;;;0.40;0.40;;;11.50;99.90;;;;;;5056178;28;20482;-72
2022/10/19 06:13:25;;;;;;;0.40;0.40;;;11.50;99.90;;;;;;5052349;28;20508;-71
2022/10/19 06:16:15;;;;;;;0.43;0.43;;;11.50;99.90;;;;;;5053777;28;20495;-68
2022/10/19 06:19:05;;;;;;;0.40;0.40;;;11.50;99.90;;;;;;5051674;28;20542;-65
2022/10/19 06:21:53;;;;;;;0.40;0.40;;;11.50;99.90;;;;;;5052464;28;20424;-72
2022/10/19 06:24:41;;;;;;;0.50;0.50;;;11.50;99.90;;;;;;5053038;28;20571;-68
2022/10/19 06:27:31;;;;;;;0.50;0.50;;;11.60;99.90;;;;;;5064699;28;20439;-68
2022/10/19 06:30:20;;;;;;;0.40;0.40;;;11.50;99.90;;;;;;5062156;28;20506;-68
2022/10/19 06:33:08;;;;;;;0.40;0.40;;;11.60;99.90;;;;;;5061419;28;20426;-69
2022/10/19 06:36:05;;;;;;;0.50;0.50;;;11.60;99.90;;;;;;5079184;28;20462;-72
2022/10/19 06:38:53;;;;;;;0.40;0.40;;;11.60;99.90;;;;;;5061816;28;20455;-70
2022/10/19 06:41:41;;;;;;;0.40;0.40;;;11.60;99.90;;;;;;5053064;28;20454;-68
2022/10/19 06:44:29;;;;;;;0.50;0.50;;;11.60;99.90;;;;;;5054689;28;20461;-71
2022/10/19 06:47:17;;;;;;;0.63;0.63;;;11.60;99.90;;;;;;5051997;28;20475;-69
2022/10/19 06:50:07;;;;;;;0.43;0.43;;;11.60;99.90;;;;;;5052252;28;20448;-70
2022/10/19 06:52:57;;;;;;;0.40;0.40;;;11.60;99.90;;;;;;5053055;28;20945;-70
2022/10/19 06:55:45;;;;;;;0.40;0.40;;;11.80;99.90;;;;;;5051024;28;20428;-69
2022/10/19 06:58:35;;;;;;;0.50;0.50;;;11.60;99.90;;;;;;5070953;28;21015;-67
2022/10/19 07:01:23;;;;;;;0.40;0.40;;;11.60;99.90;;;;;;5072064;28;20466;-68
2022/10/19 07:04:12;;;;;;;0.40;0.40;;;11.60;99.90;;;;;;5072288;28;20458;-68
2022/10/19 07:07:00;;;;;;;0.40;0.40;;;11.60;99.90;;;;;;5070763;28;20468;-67
2022/10/19 07:09:49;;;;;;;0.43;0.43;;;11.30;99.90;;;;;;5071903;28;20522;-70
2022/10/19 07:12:37;;;;;;;0.50;0.50;;;11.60;99.90;;;;;;5072953;28;20533;-69
2022/10/19 07:15:25;;;;;;;0.40;0.40;;;11.60;99.90;;;;;;5071527;28;20423;-69
2022/10/19 07:18:14;;;;;;;0.40;0.40;;;11.50;99.90;;;;;;5070912;28;20550;-66
2022/10/19 07:21:04;;;;;;;0.50;0.50;;;11.70;99.90;;;;;;5071483;28;20636;-69
2022/10/19 07:23:52;;;;;;;0.40;0.40;;;11.70;99.90;;;;;;5072135;28;20486;-69
2022/10/19 07:26:41;;;;;;;0.40;0.40;;;11.70;99.90;;;;;;5073594;28;20541;-69
2022/10/19 07:29:29;;;;;;;0.40;0.40;;;11.60;99.90;;;;;;5072519;28;21022;-69
2022/10/19 07:32:17;;;;;;;0.47;0.47;;;11.80;99.90;;;;;;5072534;28;21262;-69
2022/10/19 07:35:06;;;;;;;0.40;0.40;;;11.90;99.90;;;;;;5073064;28;20430;-68
2022/10/19 07:37:54;;;;;;;0.40;0.40;;;11.90;99.90;;;;;;5072725;28;20601;-68
2022/10/19 07:40:42;;;;;;;0.40;0.40;;;11.80;99.90;;;;;;5071085;28;20523;-69
2022/10/19 07:43:35;;;;;;;0.40;0.40;;;11.90;99.90;;;;;;5071469;28;20419;-68
2022/10/19 07:46:26;;;;;;;0.40;0.40;;;11.80;99.90;;;;;;5072062;28;21231;-71
2022/10/19 07:49:17;;;;;;;0.53;0.53;;;12.00;99.90;;;;;;5053932;28;20518;-70
2022/10/19 07:52:05;;;;;;;0.40;0.40;;;11.90;99.90;;;;;;5051329;28;20420;-70
2022/10/19 07:54:54;;;;;;;0.40;0.40;;;12.00;99.90;;;;;;5051194;28;20466;-69
2022/10/19 07:57:42;;;;;;;0.50;0.50;;;12.10;99.90;;;;;;5062873;28;20794;-68
2022/10/19 08:00:33;;;;;;;0.40;0.40;;;12.10;99.90;;;;;;5071097;28;20581;-70
2022/10/19 08:03:21;;;;;;;0.50;0.50;;;12.20;99.90;;;;;;5071329;28;20423;-69
2022/10/19 08:06:30;;;;;;;0.40;0.40;;;12.10;99.90;;;;;;5070455;28;20423;-71
2022/10/19 08:09:18;;;;;;;0.50;0.50;;;12.40;99.90;;;;;;5071139;28;20423;-69
2022/10/19 08:12:26;;;;;;;0.40;0.40;;;12.20;99.90;;;;;;5070359;28;20438;-70
2022/10/19 08:15:14;;;;;;;0.40;0.40;;;12.40;99.90;;;;;;5060983;28;20563;-69
2022/10/19 08:18:04;;;;;;;0.73;0.73;;;12.40;99.90;;;;;;5059696;28;20486;-68
2022/10/19 08:20:52;;;;;;;0.40;0.40;;;12.40;99.90;;;;;;5054146;28;20470;-70
2022/10/19 08:23:41;;;;;;;0.40;0.40;;;12.40;99.90;;;;;;5063874;28;20522;-70
2022/10/19 08:26:30;;;;;;;0.40;0.40;;;12.40;99.90;;;;;;5075716;28;20585;-68
2022/10/19 08:29:20;;;;;;;0.50;0.50;;;12.50;99.90;;;;;;5074164;28;20425;-70
2022/10/19 08:32:09;;;;;;;0.40;0.40;;;12.50;99.90;;;;;;5075820;28;20569;-70
2022/10/19 08:34:58;;;;;;;0.40;0.40;;;12.60;99.90;;;;;;5075666;28;20511;-69
2022/10/19 08:37:46;;;;;;;0.47;0.47;;;12.60;99.90;;;;;;5075559;28;20523;-68
2022/10/19 08:40:35;;;;;;;0.40;0.40;;;12.50;99.90;;;;;;5074214;28;20816;-71
2022/10/19 08:43:32;;;;;;;0.50;0.50;;;12.50;99.90;;;;;;5075685;28;20480;-70
2022/10/19 08:46:25;;;;;;;0.40;0.40;;;12.50;99.90;;;;;;5075464;28;20423;-68
2022/10/19 08:49:18;;;;;;;0.50;0.50;;;12.60;99.90;;;;;;5066008;28;20425;-69
2022/10/19 08:52:13;;;;;;;0.40;0.40;;;12.60;99.90;;;;;;5063758;28;20849;-68
2022/10/19 08:55:04;;;;;;;0.40;0.40;;;12.60;99.90;;;;;;5061253;28;20431;-69
2022/10/19 08:58:00;;;;;;;0.40;0.40;;;12.70;99.90;;;;;;5066910;28;20513;-69
2022/10/19 09:00:55;;;;;;;0.40;0.40;;;12.70;99.90;;;;;;5073863;28;20566;-68
2022/10/19 09:03:48;;;;;;;0.40;0.40;;;12.70;99.90;;;;;;5073710;28;20561;-68
2022/10/19 09:06:52;;;;;;;0.40;0.40;;;12.80;99.90;;;;;;5073587;28;20485;-68
2022/10/19 09:09:44;;;;;;;0.40;0.40;;;13.00;99.90;;;;;;5072876;28;20461;-70
2022/10/19 09:12:42;;;;;;;0.40;0.40;;;13.00;99.90;;;;;;5074406;28;20448;-68
2022/10/19 09:15:38;;;;;;;0.40;0.40;;;13.20;99.90;;;;;;5074155;28;20430;-69
2022/10/19 09:18:29;;;;;;;0.40;0.40;;;13.20;99.90;;;;;;5073180;28;20489;-70
2022/10/19 09:21:21;;;;;;;0.40;0.40;;;13.20;99.90;;;;;;5073777;28;20428;-68
2022/10/19 09:24:37;;;;;;;0.40;0.40;;;13.30;99.90;;;;;;5060796;28;20421;-68
2022/10/19 09:27:33;;;;;;;0.40;0.40;;;13.20;99.90;;;;;;5054122;28;20432;-68
2022/10/19 09:30:23;;;;;;;0.40;0.40;;;13.30;99.90;;;;;;5052847;28;21248;-69
2022/10/19 09:33:18;;;;;;;0.40;0.40;;;13.30;99.90;;;;;;5052604;28;20585;-68
2022/10/19 09:36:07;;;;;;;0.40;0.40;;;13.40;99.90;;;;;;5054388;28;20428;-70
2022/10/19 09:38:55;;;;;;;0.40;0.40;;;13.40;99.90;;;;;;5053003;28;21100;-69
2022/10/19 09:41:46;;;;;;;0.40;0.40;;;13.40;99.90;;;;;;5053488;28;20427;-69
2022/10/19 09:44:36;;;;;;;0.40;0.40;;;13.40;99.90;;;;;;5053128;28;20525;-68
2022/10/19 09:47:33;;;;;;;0.40;0.40;;;13.40;99.90;;;;;;5052977;28;20471;-69
2022/10/19 09:50:23;;;;;;;0.40;0.40;;;13.40;99.90;;;;;;5052519;28;20524;-68
2022/10/19 09:53:18;;;;;;;0.40;0.40;;;13.40;99.90;;;;;;5053990;28;20566;-70
2022/10/19 09:56:08;;;;;;;0.40;0.40;;;13.30;99.90;;;;;;5052299;28;20522;-69
2022/10/19 09:58:58;;;;;;;0.57;0.57;;;13.20;99.90;;;;;;5053506;28;20949;-69
2022/10/19 10:02:00;;;;;;;0.40;0.40;;;13.40;99.90;;;;;;5053822;28;20431;-69
2022/10/19 10:04:56;;;;;;;0.40;0.40;;;13.20;99.90;;;;;;5052393;28;20428;-67
2022/10/19 10:07:44;;;;;;;0.40;0.40;;;13.20;99.90;;;;;;5053314;28;20447;-67
2022/10/19 10:10:38;;;;;;;0.50;0.50;;;13.30;99.90;;;;;;5059418;28;20565;-68
2022/10/19 10:13:27;;;;;;;0.40;0.40;;;13.30;99.90;;;;;;5063604;28;20974;-72
2022/10/19 10:16:18;;;;;;;0.40;0.40;;;13.60;99.90;;;;;;5062740;28;20581;-70
2022/10/19 10:19:12;;;;;;;0.40;0.40;;;13.80;99.90;;;;;;5063899;28;20815;-69
2022/10/19 10:22:02;;;;;;;0.40;0.40;;;13.90;99.90;;;;;;5071686;28;20426;-71
2022/10/19 10:24:52;;;;;;;0.40;0.40;;;13.90;99.90;;;;;;5072553;28;20510;-69
2022/10/19 10:27:40;;;;;;;0.40;0.40;;;13.90;99.90;;;;;;5073597;28;20496;-69
2022/10/19 10:30:33;;;;;;;0.40;0.40;;;13.70;99.90;;;;;;5064364;28;20455;-71
2022/10/19 10:33:25;;;;;;;0.50;0.50;;;13.60;99.90;;;;;;5058664;28;20523;-68
2022/10/19 10:36:32;;;;;;;0.40;0.40;;;13.60;99.90;;;;;;5061632;28;20436;-67
2022/10/19 10:39:20;;;;;;;2.97;2.77;;;13.50;99.90;;;;;;5059016;28;21134;-69
2022/10/19 10:42:14;;;;;;;0.40;0.40;;;13.60;99.90;;;;;;5059296;28;20474;-67
2022/10/19 10:45:04;;;;;;;0.47;0.47;;;13.50;99.90;;;;;;5059746;28;20420;-71
2022/10/19 10:47:53;;;;;;;0.40;0.40;;;13.60;99.90;;;;;;5058281;28;20969;-69
2022/10/19 10:50:41;;;;;;;0.50;0.50;;;13.70;99.90;;;;;;5051705;28;20858;-70
2022/10/19 10:53:38;;;;;;;0.40;0.40;;;13.70;99.90;;;;;;5054879;28;20540;-68
2022/10/19 10:56:28;;;;;;;0.40;0.40;;;13.80;99.90;;;;;;5055639;28;20440;-70
2022/10/19 10:59:22;;;;;;;0.90;0.57;;;13.90;99.90;;;;;;5063653;28;20524;-68
2022/10/19 11:02:18;;;;;;;0.40;0.40;;;14.00;99.90;;;;;;5061988;28;20740;-67
2022/10/19 11:05:12;;;;;;;0.40;0.40;;;13.80;99.90;;;;;;5062245;28;20456;-68
2022/10/19 11:08:04;;;;;;;0.40;0.40;;;13.90;99.90;;;;;;5062298;28;20831;-67
2022/10/19 11:11:00;;;;;;;0.50;0.50;;;14.00;99.90;;;;;;5062199;28;20959;-67
2022/10/19 11:13:52;;;;;;;0.40;0.40;;;14.00;99.90;;;;;;5063586;28;20424;-67
2022/10/19 11:16:44;;;;;;;0.40;0.40;;;13.90;99.90;;;;;;5072710;28;20529;-68
2022/10/19 11:19:35;;;;;;;0.40;0.40;;;13.90;99.90;;;;;;5070112;28;20471;-68
2022/10/19 11:22:29;;;;;;;0.40;0.40;;;13.90;99.90;;;;;;5062320;28;20424;-69
2022/10/19 11:25:32;;;;;;;0.40;0.40;;;14.00;99.90;;;;;;5060262;28;20255;-71
2022/10/19 11:28:45;;;;;;;0.40;0.40;;;14.10;99.90;;;;;;5065956;28;20520;-70
2022/10/19 11:31:44;;;;;;;0.40;0.40;;;14.30;99.90;;;;;;5069405;28;20550;-68
2022/10/19 11:34:44;;;;;;;0.40;0.40;;;14.60;99.90;;;;;;5070138;28;20280;-70
2022/10/19 11:37:40;;;;;;;0.40;0.40;;;14.60;99.90;;;;;;5071022;28;21055;-70
2022/10/19 11:40:54;;;;;;;0.40;0.40;;;14.70;99.90;;;;;;5067063;28;20438;-68
2022/10/19 11:44:26;;;;;;;0.40;0.40;;;14.70;99.90;;;;;;5062552;28;20468;-69
2022/10/19 11:47:30;;;;;;;0.40;0.40;;;14.90;99.90;;;;;;5060482;28;20533;-67
2022/10/19 11:50:29;;;;;;;0.40;0.40;;;14.90;99.90;;;;;;5051039;28;20201;-72
2022/10/19 11:53:30;;;;;;;0.50;0.50;;;15.00;99.90;;;;;;5052707;28;20424;-70
2022/10/19 11:56:27;;;;;;;0.40;0.40;;;14.90;99.90;;;;;;5055458;28;20519;-71
2022/10/19 11:59:43;;;;;;;0.50;0.50;;;14.90;99.90;;;;;;5059412;28;20218;-67
2022/10/19 12:02:56;;;;;;;0.40;0.40;;;14.80;99.90;;;;;;5059871;28;20213;-70
2022/10/19 12:06:02;;;;;;;0.40;0.40;;;14.70;99.90;;;;;;5072316;28;20198;-69
2022/10/19 12:09:04;;;;;;;0.40;0.40;;;14.50;99.90;;;;;;5064644;28;20214;-68
2022/10/19 12:12:08;;;;;;;0.40;0.40;;;14.40;99.90;;;;;;5058272;28;20208;-67
2022/10/19 12:15:16;;;;;;;0.40;0.40;;;14.40;99.90;;;;;;5055199;28;20623;-68
2022/10/19 12:18:12;;;;;;;0.40;0.40;;;14.40;99.90;;;;;;5054747;28;20598;-69
2022/10/19 12:21:04;;;;;;;0.40;0.40;;;14.40;99.90;;;;;;5053047;28;21050;-69
2022/10/19 12:23:54;;;;;;;0.50;0.50;;;14.40;99.90;;;;;;5062992;28;20427;-71
2022/10/19 12:26:44;;;;;;;0.40;0.40;;;14.50;99.90;;;;;;5073240;28;20658;-72
2022/10/19 12:29:36;;;;;;;0.40;0.40;;;14.60;99.90;;;;;;5072872;28;20200;-70
2022/10/19 12:32:28;;;;;;;0.40;0.40;;;13.70;99.90;;;;;;5074432;28;20236;-70
2022/10/19 12:35:34;;;;;;;0.40;0.40;;;14.80;99.90;;;;;;5073183;28;20284;-70
2022/10/19 12:38:29;;;;;;;0.40;0.40;;;14.90;99.90;;;;;;5062185;28;20217;-72
2022/10/19 12:41:23;;;;;;;0.50;0.50;;;14.80;99.90;;;;;;5061833;28;20273;-70
2022/10/19 12:44:37;;;;;;;0.40;0.40;;;14.80;99.90;;;;;;5054350;28;20291;-70
2022/10/19 12:47:27;;;;;;;0.40;0.40;;;14.70;99.90;;;;;;5066965;28;20598;-71
2022/10/19 12:50:16;;;;;;;0.40;0.40;;;14.90;99.90;;;;;;5062772;28;20276;-68
2022/10/19 12:53:04;;;;;;;0.40;0.40;;;14.90;99.90;;;;;;5063850;28;20207;-69
2022/10/19 12:56:00;;;;;;;0.40;0.40;;;15.10;99.90;;;;;;5054435;28;20205;-69
2022/10/19 12:58:53;;;;;;;0.40;0.40;;;15.20;99.90;;;;;;5052953;28;20278;-70
2022/10/19 13:01:43;;;;;;;0.40;0.40;;;15.10;99.90;;;;;;5055314;28;20712;-69
2022/10/19 13:04:35;;;;;;;0.50;0.50;;;15.20;99.90;;;;;;5051432;28;20229;-68
2022/10/19 13:07:25;;;;;;;0.40;0.40;;;15.10;99.90;;;;;;5052115;28;20243;-69
2022/10/19 13:10:20;;;;;;;0.40;0.40;;;15.10;99.90;;;;;;5051875;28;20277;-68
2022/10/19 13:13:53;;;;;;;0.40;0.40;;;15.00;99.90;;;;;;5054219;28;20207;-70
2022/10/19 13:17:07;;;;;;;0.40;0.40;;;15.00;99.90;;;;;;5053468;28;20280;-71
2022/10/19 13:20:47;;;;;;;0.40;0.40;;;15.00;99.90;;;;;;5053497;28;20213;-69
2022/10/19 13:23:40;;;;;;;0.40;0.40;;;15.00;99.90;;;;;;5053530;28;20250;-70
2022/10/19 13:26:34;;;;;;;0.40;0.40;;;15.00;99.90;;;;;;5053534;28;20284;-72
2022/10/19 13:29:26;;;;;;;0.50;0.50;;;15.10;99.90;;;;;;5052956;28;20193;-70
2022/10/19 13:32:38;;;;;;;0.40;0.40;;;15.00;99.90;;;;;;5052640;28;20677;-68
2022/10/19 13:35:32;;;;;;;0.40;0.40;;;14.70;99.90;;;;;;5053828;28;20201;-69
2022/10/19 13:38:26;;;;;;;0.40;0.40;;;14.60;99.90;;;;;;5053421;28;20304;-70
2022/10/19 13:41:20;;;;;;;0.40;0.40;;;14.50;99.90;;;;;;5052595;28;20305;-70
2022/10/19 13:44:20;;;;;;;0.40;0.40;;;14.50;99.90;;;;;;5053479;28;20523;-70
2022/10/19 13:47:38;;;;;;;0.40;0.40;;;14.60;99.90;;;;;;5064618;28;20663;-71
2022/10/19 13:50:37;;;;;;;0.40;0.40;;;14.60;99.90;;;;;;5064074;28;20343;-71
2022/10/19 13:53:40;;;;;;;0.40;0.40;;;14.70;99.90;;;;;;5061937;28;20273;-71
2022/10/19 13:56:41;;;;;;;0.40;0.40;;;15.10;99.90;;;;;;5062819;28;20205;-70
2022/10/19 14:00:00;;;;;;;0.40;0.40;;;15.70;99.90;;;;;;5072043;28;20221;-69
2022/10/19 14:03:01;;;;;;;0.40;0.40;;;16.10;99.90;;;;;;5061430;28;20278;-70
2022/10/19 14:06:12;;;;;;;0.40;0.40;;;16.40;99.90;;;;;;5051952;28;20204;-73
2022/10/19 14:09:28;;;;;;;0.40;0.40;;;16.50;99.90;;;;;;5052060;28;20616;-71
2022/10/19 14:12:22;;;;;;;0.40;0.40;;;16.80;99.90;;;;;;5051591;28;20557;-72
2022/10/19 14:15:29;;;;;;;0.40;0.40;;;17.10;99.90;;;;;;5052455;28;20690;-69
2022/10/19 14:18:23;;;;;;;0.40;0.40;;;17.40;99.90;;;;;;5051501;28;20363;-68
2022/10/19 14:21:13;;;;;;;0.40;0.40;;;17.50;99.90;;;;;;5053324;28;20304;-69
2022/10/19 14:24:01;;;;;;;0.40;0.40;;;17.60;99.90;;;;;;5051041;28;20644;-70
2022/10/19 14:26:49;;;;;;;0.50;0.50;;;17.90;99.90;;;;;;5053612;28;20209;-67
2022/10/19 14:29:44;;;;;;;0.40;0.40;;;17.90;99.90;;;;;;5070638;28;20207;-72
2022/10/19 14:32:34;;;;;;;0.45;0.45;;;18.20;99.90;;;;;;5071904;28;20678;-71
2022/10/19 14:35:26;;;;;;;0.40;0.40;;;18.20;99.90;;;;;;5071211;28;20205;-69
2022/10/19 14:38:20;;;;;;;0.40;0.40;;;17.80;99.90;;;;;;5070438;28;20244;-72
2022/10/19 14:41:20;;;;;;;0.40;0.40;;;17.40;99.90;;;;;;5067722;28;20327;-68
2022/10/19 14:44:37;;;;;;;0.40;0.40;;;17.00;99.90;;;;;;5060691;28;20236;-70
2022/10/19 14:47:26;;;;;;;0.40;0.40;;;16.60;99.90;;;;;;5061407;28;20721;-69
2022/10/19 14:50:14;;;;;;;0.40;0.40;;;16.20;99.90;;;;;;5062622;28;20670;-69
2022/10/19 14:53:16;;;;;;;0.40;0.40;;;15.90;99.90;;;;;;5062295;28;20565;-70
2022/10/19 14:56:09;;;;;;;0.40;0.40;;;15.70;99.90;;;;;;5062355;28;20236;-70
2022/10/19 14:59:01;;;;;;;0.40;0.40;;;15.40;99.90;;;;;;5060490;28;20245;-69
2022/10/19 15:01:50;;;;;;;0.40;0.40;;;15.20;99.90;;;;;;5061558;28;20216;-71